sensor_id;sensor_type;location;lat;lon;timestamp;P1;durP1;ratioP1;P2;durP2;ratioP2
13234;SDS011;6683;48.506;9.050;2023-04-03T00:02:56;2.53;;;2.03;;
13234;SDS011;6683;48.506;9.050;2023-04-03T00:06:00;1.80;;;1.70;;
13234;SDS011;6683;48.506;9.050;2023-04-03T00:09:03;4.13;;;2.20;;
13234;SDS011;6683;48.506;9.050;2023-04-03T00:12:05;2.77;;;2.10;;
13234;SDS011;6683;48.506;9.050;2023-04-03T00:15:08;2.57;;;1.90;;
13234;SDS011;6683;48.506;9.050;2023-04-03T00:18:11;3.50;;;1.97;;
13234;SDS011;6683;48.506;9.050;2023-04-03T00:21:15;2.53;;;2.20;;
13234;SDS011;6683;48.506;9.050;2023-04-03T00:24:17;2.33;;;2.00;;
13234;SDS011;6683;48.506;9.050;2023-04-03T00:27:20;2.20;;;2.00;;
13234;SDS011;6683;48.506;9.050;2023-04-03T00:30:23;2.37;;;1.73;;
13234;SDS011;6683;48.506;9.050;2023-04-03T00:33:26;2.10;;;1.87;;
13234;SDS011;6683;48.506;9.050;2023-04-03T00:36:30;2.43;;;2.00;;
13234;SDS011;6683;48.506;9.050;2023-04-03T00:39:33;1.90;;;1.70;;
13234;SDS011;6683;48.506;9.050;2023-04-03T00:42:36;2.53;;;2.17;;
13234;SDS011;6683;48.506;9.050;2023-04-03T00:45:39;2.10;;;1.90;;
13234;SDS011;6683;48.506;9.050;2023-04-03T00:48:43;2.70;;;2.10;;
13234;SDS011;6683;48.506;9.050;2023-04-03T00:51:49;2.23;;;1.97;;
13234;SDS011;6683;48.506;9.050;2023-04-03T00:54:52;2.80;;;1.90;;
13234;SDS011;6683;48.506;9.050;2023-04-03T00:57:59;2.40;;;1.90;;
13234;SDS011;6683;48.506;9.050;2023-04-03T01:01:03;2.00;;;1.70;;
13234;SDS011;6683;48.506;9.050;2023-04-03T01:04:24;2.07;;;1.77;;
13234;SDS011;6683;48.506;9.050;2023-04-03T01:07:30;2.20;;;2.00;;
13234;SDS011;6683;48.506;9.050;2023-04-03T01:10:36;2.33;;;2.03;;
13234;SDS011;6683;48.506;9.050;2023-04-03T01:13:39;1.83;;;1.70;;
13234;SDS011;6683;48.506;9.050;2023-04-03T01:16:42;2.47;;;2.23;;
13234;SDS011;6683;48.506;9.050;2023-04-03T01:19:55;2.10;;;1.87;;
13234;SDS011;6683;48.506;9.050;2023-04-03T01:23:32;2.00;;;1.80;;
13234;SDS011;6683;48.506;9.050;2023-04-03T01:26:49;2.53;;;1.63;;
13234;SDS011;6683;48.506;9.050;2023-04-03T01:29:51;1.87;;;1.70;;
13234;SDS011;6683;48.506;9.050;2023-04-03T01:32:55;2.10;;;1.90;;
13234;SDS011;6683;48.506;9.050;2023-04-03T01:35:58;2.10;;;1.90;;
13234;SDS011;6683;48.506;9.050;2023-04-03T01:39:01;2.10;;;1.77;;
13234;SDS011;6683;48.506;9.050;2023-04-03T01:42:04;2.00;;;1.80;;
13234;SDS011;6683;48.506;9.050;2023-04-03T01:45:07;3.07;;;2.00;;
13234;SDS011;6683;48.506;9.050;2023-04-03T01:48:12;2.87;;;1.83;;
13234;SDS011;6683;48.506;9.050;2023-04-03T01:51:14;3.80;;;2.10;;
13234;SDS011;6683;48.506;9.050;2023-04-03T01:54:16;2.10;;;1.77;;
13234;SDS011;6683;48.506;9.050;2023-04-03T01:57:19;2.10;;;1.90;;
13234;SDS011;6683;48.506;9.050;2023-04-03T02:00:21;2.47;;;2.00;;
13234;SDS011;6683;48.506;9.050;2023-04-03T02:03:25;2.10;;;1.90;;
13234;SDS011;6683;48.506;9.050;2023-04-03T02:06:27;2.40;;;2.20;;
13234;SDS011;6683;48.506;9.050;2023-04-03T02:09:29;3.17;;;1.97;;
13234;SDS011;6683;48.506;9.050;2023-04-03T02:12:32;2.50;;;2.10;;
13234;SDS011;6683;48.506;9.050;2023-04-03T02:15:37;2.57;;;2.33;;
13234;SDS011;6683;48.506;9.050;2023-04-03T02:18:42;2.30;;;2.03;;
13234;SDS011;6683;48.506;9.050;2023-04-03T02:21:44;1.90;;;1.80;;
13234;SDS011;6683;48.506;9.050;2023-04-03T02:24:47;2.40;;;1.90;;
13234;SDS011;6683;48.506;9.050;2023-04-03T02:27:49;2.50;;;2.30;;
13234;SDS011;6683;48.506;9.050;2023-04-03T02:30:51;2.40;;;2.07;;
13234;SDS011;6683;48.506;9.050;2023-04-03T02:33:55;3.30;;;2.17;;
13234;SDS011;6683;48.506;9.050;2023-04-03T02:36:58;2.80;;;2.03;;
13234;SDS011;6683;48.506;9.050;2023-04-03T02:40:00;2.90;;;2.20;;
13234;SDS011;6683;48.506;9.050;2023-04-03T02:43:03;3.30;;;2.40;;
13234;SDS011;6683;48.506;9.050;2023-04-03T02:46:06;2.63;;;2.13;;
13234;SDS011;6683;48.506;9.050;2023-04-03T02:49:10;1.80;;;1.70;;
13234;SDS011;6683;48.506;9.050;2023-04-03T02:52:12;2.80;;;2.50;;
13234;SDS011;6683;48.506;9.050;2023-04-03T02:55:15;2.57;;;1.80;;
13234;SDS011;6683;48.506;9.050;2023-04-03T02:58:18;2.13;;;1.93;;
13234;SDS011;6683;48.506;9.050;2023-04-03T03:01:20;2.30;;;2.10;;
13234;SDS011;6683;48.506;9.050;2023-04-03T03:04:24;2.83;;;2.30;;
13234;SDS011;6683;48.506;9.050;2023-04-03T03:07:26;2.10;;;1.87;;
13234;SDS011;6683;48.506;9.050;2023-04-03T03:10:29;2.10;;;1.90;;
13234;SDS011;6683;48.506;9.050;2023-04-03T03:13:31;4.33;;;2.37;;
13234;SDS011;6683;48.506;9.050;2023-04-03T03:16:35;4.07;;;2.30;;
13234;SDS011;6683;48.506;9.050;2023-04-03T03:19:39;2.67;;;2.27;;
13234;SDS011;6683;48.506;9.050;2023-04-03T03:22:41;2.00;;;1.80;;
13234;SDS011;6683;48.506;9.050;2023-04-03T03:25:44;3.20;;;1.83;;
13234;SDS011;6683;48.506;9.050;2023-04-03T03:28:46;2.20;;;2.00;;
13234;SDS011;6683;48.506;9.050;2023-04-03T03:31:48;3.07;;;2.10;;
13234;SDS011;6683;48.506;9.050;2023-04-03T03:34:52;2.47;;;2.00;;
13234;SDS011;6683;48.506;9.050;2023-04-03T03:37:54;2.27;;;1.80;;
13234;SDS011;6683;48.506;9.050;2023-04-03T03:40:57;2.20;;;1.90;;
13234;SDS011;6683;48.506;9.050;2023-04-03T03:43:59;1.93;;;1.77;;
13234;SDS011;6683;48.506;9.050;2023-04-03T03:47:02;2.30;;;2.10;;
13234;SDS011;6683;48.506;9.050;2023-04-03T03:50:09;2.50;;;1.90;;
13234;SDS011;6683;48.506;9.050;2023-04-03T03:53:11;2.57;;;1.93;;
13234;SDS011;6683;48.506;9.050;2023-04-03T03:56:14;2.63;;;1.70;;
13234;SDS011;6683;48.506;9.050;2023-04-03T03:59:17;3.20;;;1.80;;
13234;SDS011;6683;48.506;9.050;2023-04-03T04:02:20;2.50;;;2.00;;
13234;SDS011;6683;48.506;9.050;2023-04-03T04:05:24;2.50;;;1.90;;
13234;SDS011;6683;48.506;9.050;2023-04-03T04:08:27;2.37;;;2.17;;
13234;SDS011;6683;48.506;9.050;2023-04-03T04:11:29;2.17;;;2.00;;
13234;SDS011;6683;48.506;9.050;2023-04-03T04:14:33;2.30;;;1.80;;
13234;SDS011;6683;48.506;9.050;2023-04-03T04:17:35;3.27;;;2.20;;
13234;SDS011;6683;48.506;9.050;2023-04-03T04:20:39;2.30;;;2.10;;
13234;SDS011;6683;48.506;9.050;2023-04-03T04:23:41;3.47;;;2.03;;
13234;SDS011;6683;48.506;9.050;2023-04-03T04:26:44;2.10;;;1.90;;
13234;SDS011;6683;48.506;9.050;2023-04-03T04:29:46;2.10;;;1.90;;
13234;SDS011;6683;48.506;9.050;2023-04-03T04:32:49;2.60;;;2.30;;
13234;SDS011;6683;48.506;9.050;2023-04-03T04:35:52;2.50;;;2.20;;
13234;SDS011;6683;48.506;9.050;2023-04-03T04:38:55;2.90;;;2.10;;
13234;SDS011;6683;48.506;9.050;2023-04-03T04:41:58;2.03;;;1.83;;
13234;SDS011;6683;48.506;9.050;2023-04-03T04:45:00;2.30;;;2.10;;
13234;SDS011;6683;48.506;9.050;2023-04-03T04:48:03;2.37;;;2.17;;
13234;SDS011;6683;48.506;9.050;2023-04-03T04:51:07;2.27;;;2.00;;
13234;SDS011;6683;48.506;9.050;2023-04-03T04:54:10;2.20;;;1.80;;
13234;SDS011;6683;48.506;9.050;2023-04-03T04:57:12;2.20;;;2.00;;
13234;SDS011;6683;48.506;9.050;2023-04-03T05:00:15;2.33;;;1.90;;
13234;SDS011;6683;48.506;9.050;2023-04-03T05:03:20;2.13;;;1.87;;
13234;SDS011;6683;48.506;9.050;2023-04-03T05:06:23;2.30;;;2.10;;
13234;SDS011;6683;48.506;9.050;2023-04-03T05:09:25;2.10;;;1.90;;
13234;SDS011;6683;48.506;9.050;2023-04-03T05:12:28;2.33;;;2.07;;
13234;SDS011;6683;48.506;9.050;2023-04-03T05:15:31;2.23;;;1.90;;
13234;SDS011;6683;48.506;9.050;2023-04-03T05:18:33;2.40;;;2.07;;
13234;SDS011;6683;48.506;9.050;2023-04-03T05:21:37;2.00;;;1.80;;
13234;SDS011;6683;48.506;9.050;2023-04-03T05:24:40;3.23;;;1.90;;
13234;SDS011;6683;48.506;9.050;2023-04-03T05:27:42;2.17;;;1.97;;
13234;SDS011;6683;48.506;9.050;2023-04-03T05:30:44;1.90;;;1.70;;
13234;SDS011;6683;48.506;9.050;2023-04-03T05:33:47;3.53;;;2.13;;
13234;SDS011;6683;48.506;9.050;2023-04-03T05:36:51;2.20;;;1.90;;
13234;SDS011;6683;48.506;9.050;2023-04-03T05:39:53;2.73;;;1.83;;
13234;SDS011;6683;48.506;9.050;2023-04-03T05:42:57;2.10;;;1.90;;
13234;SDS011;6683;48.506;9.050;2023-04-03T05:45:59;2.70;;;1.70;;
13234;SDS011;6683;48.506;9.050;2023-04-03T05:49:02;2.83;;;1.80;;
13234;SDS011;6683;48.506;9.050;2023-04-03T05:52:06;1.97;;;1.77;;
13234;SDS011;6683;48.506;9.050;2023-04-03T05:55:19;2.97;;;1.63;;
13234;SDS011;6683;48.506;9.050;2023-04-03T05:58:22;1.97;;;1.80;;
13234;SDS011;6683;48.506;9.050;2023-04-03T06:01:24;2.77;;;1.70;;
13234;SDS011;6683;48.506;9.050;2023-04-03T06:04:27;1.70;;;1.60;;
13234;SDS011;6683;48.506;9.050;2023-04-03T06:07:30;1.90;;;1.70;;
13234;SDS011;6683;48.506;9.050;2023-04-03T06:10:33;2.00;;;1.70;;
13234;SDS011;6683;48.506;9.050;2023-04-03T06:13:36;2.33;;;1.70;;
13234;SDS011;6683;48.506;9.050;2023-04-03T06:16:38;1.80;;;1.47;;
13234;SDS011;6683;48.506;9.050;2023-04-03T06:19:41;2.17;;;1.60;;
13234;SDS011;6683;48.506;9.050;2023-04-03T06:22:45;3.17;;;1.53;;
13234;SDS011;6683;48.506;9.050;2023-04-03T06:25:47;2.60;;;1.90;;
13234;SDS011;6683;48.506;9.050;2023-04-03T06:28:50;3.17;;;1.90;;
13234;SDS011;6683;48.506;9.050;2023-04-03T06:31:53;1.90;;;1.50;;
13234;SDS011;6683;48.506;9.050;2023-04-03T06:34:55;1.40;;;1.30;;
13234;SDS011;6683;48.506;9.050;2023-04-03T06:38:00;1.50;;;1.40;;
13234;SDS011;6683;48.506;9.050;2023-04-03T06:41:04;1.43;;;1.33;;
13234;SDS011;6683;48.506;9.050;2023-04-03T06:44:07;2.60;;;1.90;;
13234;SDS011;6683;48.506;9.050;2023-04-03T06:47:11;3.53;;;1.63;;
13234;SDS011;6683;48.506;9.050;2023-04-03T06:50:14;1.73;;;1.50;;
13234;SDS011;6683;48.506;9.050;2023-04-03T06:53:18;1.83;;;1.60;;
13234;SDS011;6683;48.506;9.050;2023-04-03T06:56:20;3.00;;;1.57;;
13234;SDS011;6683;48.506;9.050;2023-04-03T06:59:23;1.80;;;1.60;;
13234;SDS011;6683;48.506;9.050;2023-04-03T07:02:25;1.77;;;1.40;;
13234;SDS011;6683;48.506;9.050;2023-04-03T07:05:28;2.40;;;1.60;;
13234;SDS011;6683;48.506;9.050;2023-04-03T07:08:32;1.80;;;1.57;;
13234;SDS011;6683;48.506;9.050;2023-04-03T07:11:35;1.63;;;1.37;;
13234;SDS011;6683;48.506;9.050;2023-04-03T07:14:38;2.37;;;1.57;;
13234;SDS011;6683;48.506;9.050;2023-04-03T07:17:41;2.17;;;1.50;;
13234;SDS011;6683;48.506;9.050;2023-04-03T07:20:44;2.37;;;1.57;;
13234;SDS011;6683;48.506;9.050;2023-04-03T07:23:48;3.80;;;1.70;;
13234;SDS011;6683;48.506;9.050;2023-04-03T07:26:51;1.67;;;1.37;;
13234;SDS011;6683;48.506;9.050;2023-04-03T07:29:54;2.10;;;1.30;;
13234;SDS011;6683;48.506;9.050;2023-04-03T07:32:57;1.63;;;1.40;;
13234;SDS011;6683;48.506;9.050;2023-04-03T07:35:59;2.87;;;1.50;;
13234;SDS011;6683;48.506;9.050;2023-04-03T07:39:04;1.50;;;1.40;;
13234;SDS011;6683;48.506;9.050;2023-04-03T07:42:06;1.50;;;1.40;;
13234;SDS011;6683;48.506;9.050;2023-04-03T07:45:09;1.93;;;1.20;;
13234;SDS011;6683;48.506;9.050;2023-04-03T07:48:12;1.90;;;1.53;;
13234;SDS011;6683;48.506;9.050;2023-04-03T07:51:15;1.57;;;1.40;;
13234;SDS011;6683;48.506;9.050;2023-04-03T07:54:20;2.03;;;1.73;;
13234;SDS011;6683;48.506;9.050;2023-04-03T07:57:22;2.67;;;1.80;;
13234;SDS011;6683;48.506;9.050;2023-04-03T08:00:25;1.40;;;1.30;;
13234;SDS011;6683;48.506;9.050;2023-04-03T08:03:27;1.50;;;1.40;;
13234;SDS011;6683;48.506;9.050;2023-04-03T08:06:30;1.33;;;1.17;;
13234;SDS011;6683;48.506;9.050;2023-04-03T08:09:37;1.60;;;1.30;;
13234;SDS011;6683;48.506;9.050;2023-04-03T08:12:39;2.00;;;1.77;;
13234;SDS011;6683;48.506;9.050;2023-04-03T08:15:42;2.43;;;1.60;;
13234;SDS011;6683;48.506;9.050;2023-04-03T08:18:44;2.27;;;1.40;;
13234;SDS011;6683;48.506;9.050;2023-04-03T08:21:47;2.30;;;1.47;;
13234;SDS011;6683;48.506;9.050;2023-04-03T08:24:51;1.60;;;1.50;;
13234;SDS011;6683;48.506;9.050;2023-04-03T08:27:53;1.43;;;1.30;;
13234;SDS011;6683;48.506;9.050;2023-04-03T08:30:56;1.73;;;1.60;;
13234;SDS011;6683;48.506;9.050;2023-04-03T08:34:07;2.20;;;1.93;;
13234;SDS011;6683;48.506;9.050;2023-04-03T08:37:09;1.30;;;1.20;;
13234;SDS011;6683;48.506;9.050;2023-04-03T08:40:14;1.70;;;1.57;;
13234;SDS011;6683;48.506;9.050;2023-04-03T08:43:23;1.53;;;1.27;;
13234;SDS011;6683;48.506;9.050;2023-04-03T08:46:40;2.10;;;1.30;;
13234;SDS011;6683;48.506;9.050;2023-04-03T08:49:58;1.60;;;1.50;;
13234;SDS011;6683;48.506;9.050;2023-04-03T08:53:03;1.90;;;1.67;;
13234;SDS011;6683;48.506;9.050;2023-04-03T08:56:14;1.97;;;1.67;;
13234;SDS011;6683;48.506;9.050;2023-04-03T08:59:23;3.97;;;1.83;;
13234;SDS011;6683;48.506;9.050;2023-04-03T09:02:31;2.17;;;1.60;;
13234;SDS011;6683;48.506;9.050;2023-04-03T09:05:41;2.13;;;1.70;;
13234;SDS011;6683;48.506;9.050;2023-04-03T09:08:51;2.93;;;1.67;;
13234;SDS011;6683;48.506;9.050;2023-04-03T09:12:12;4.43;;;1.83;;
13234;SDS011;6683;48.506;9.050;2023-04-03T09:15:21;2.87;;;1.80;;
13234;SDS011;6683;48.506;9.050;2023-04-03T09:18:26;2.67;;;1.80;;
13234;SDS011;6683;48.506;9.050;2023-04-03T09:21:34;3.00;;;1.63;;
13234;SDS011;6683;48.506;9.050;2023-04-03T09:24:42;1.77;;;1.60;;
13234;SDS011;6683;48.506;9.050;2023-04-03T09:27:48;2.00;;;1.80;;
13234;SDS011;6683;48.506;9.050;2023-04-03T09:30:50;2.03;;;1.60;;
13234;SDS011;6683;48.506;9.050;2023-04-03T09:33:53;1.90;;;1.43;;
13234;SDS011;6683;48.506;9.050;2023-04-03T09:37:01;2.50;;;1.73;;
13234;SDS011;6683;48.506;9.050;2023-04-03T09:40:11;1.73;;;1.63;;
13234;SDS011;6683;48.506;9.050;2023-04-03T09:43:44;2.87;;;1.67;;
13234;SDS011;6683;48.506;9.050;2023-04-03T09:46:54;2.73;;;1.67;;
13234;SDS011;6683;48.506;9.050;2023-04-03T09:50:09;3.00;;;1.73;;
13234;SDS011;6683;48.506;9.050;2023-04-03T09:53:26;2.10;;;1.77;;
13234;SDS011;6683;48.506;9.050;2023-04-03T09:56:31;1.87;;;1.60;;
13234;SDS011;6683;48.506;9.050;2023-04-03T09:59:36;2.63;;;1.70;;
13234;SDS011;6683;48.506;9.050;2023-04-03T10:02:43;3.57;;;1.30;;
13234;SDS011;6683;48.506;9.050;2023-04-03T10:05:50;2.17;;;1.40;;
13234;SDS011;6683;48.506;9.050;2023-04-03T10:08:58;1.80;;;1.70;;
13234;SDS011;6683;48.506;9.050;2023-04-03T10:12:05;2.43;;;1.50;;
13234;SDS011;6683;48.506;9.050;2023-04-03T10:15:13;2.40;;;1.50;;
13234;SDS011;6683;48.506;9.050;2023-04-03T10:18:24;2.13;;;1.40;;
13234;SDS011;6683;48.506;9.050;2023-04-03T10:21:41;1.60;;;1.50;;
13234;SDS011;6683;48.506;9.050;2023-04-03T10:24:52;2.60;;;1.73;;
13234;SDS011;6683;48.506;9.050;2023-04-03T10:28:03;2.33;;;1.80;;
13234;SDS011;6683;48.506;9.050;2023-04-03T10:31:14;2.43;;;1.50;;
13234;SDS011;6683;48.506;9.050;2023-04-03T10:34:23;1.77;;;1.50;;
13234;SDS011;6683;48.506;9.050;2023-04-03T10:37:34;1.40;;;1.30;;
13234;SDS011;6683;48.506;9.050;2023-04-03T10:40:52;1.50;;;1.30;;
13234;SDS011;6683;48.506;9.050;2023-04-03T10:44:07;1.93;;;1.40;;
13234;SDS011;6683;48.506;9.050;2023-04-03T10:47:24;1.80;;;1.60;;
13234;SDS011;6683;48.506;9.050;2023-04-03T10:50:44;2.53;;;1.53;;
13234;SDS011;6683;48.506;9.050;2023-04-03T10:54:01;2.00;;;1.40;;
13234;SDS011;6683;48.506;9.050;2023-04-03T10:57:10;1.97;;;1.50;;
13234;SDS011;6683;48.506;9.050;2023-04-03T11:00:14;2.47;;;1.20;;
13234;SDS011;6683;48.506;9.050;2023-04-03T11:03:27;2.80;;;1.50;;
13234;SDS011;6683;48.506;9.050;2023-04-03T11:06:36;1.50;;;1.40;;
13234;SDS011;6683;48.506;9.050;2023-04-03T11:09:45;2.47;;;1.40;;
13234;SDS011;6683;48.506;9.050;2023-04-03T11:12:52;2.23;;;1.40;;
13234;SDS011;6683;48.506;9.050;2023-04-03T11:16:01;2.17;;;1.50;;
13234;SDS011;6683;48.506;9.050;2023-04-03T11:19:10;2.13;;;1.20;;
13234;SDS011;6683;48.506;9.050;2023-04-03T11:22:22;1.70;;;1.40;;
13234;SDS011;6683;48.506;9.050;2023-04-03T11:25:29;2.33;;;1.50;;
13234;SDS011;6683;48.506;9.050;2023-04-03T11:28:34;2.33;;;1.30;;
13234;SDS011;6683;48.506;9.050;2023-04-03T11:31:41;1.73;;;1.10;;
13234;SDS011;6683;48.506;9.050;2023-04-03T11:35:04;3.53;;;1.33;;
13234;SDS011;6683;48.506;9.050;2023-04-03T11:38:10;2.70;;;1.20;;
13234;SDS011;6683;48.506;9.050;2023-04-03T11:41:24;1.50;;;1.27;;
13234;SDS011;6683;48.506;9.050;2023-04-03T11:44:32;2.17;;;1.20;;
13234;SDS011;6683;48.506;9.050;2023-04-03T11:47:45;1.40;;;1.10;;
13234;SDS011;6683;48.506;9.050;2023-04-03T11:50:51;1.17;;;1.07;;
13234;SDS011;6683;48.506;9.050;2023-04-03T11:53:53;1.20;;;1.10;;
13234;SDS011;6683;48.506;9.050;2023-04-03T11:57:43;1.90;;;1.30;;
13234;SDS011;6683;48.506;9.050;2023-04-03T12:01:41;1.67;;;1.30;;
13234;SDS011;6683;48.506;9.050;2023-04-03T12:04:48;1.80;;;1.33;;
13234;SDS011;6683;48.506;9.050;2023-04-03T12:08:34;2.00;;;1.30;;
13234;SDS011;6683;48.506;9.050;2023-04-03T12:11:46;1.17;;;1.07;;
13234;SDS011;6683;48.506;9.050;2023-04-03T12:14:50;1.63;;;0.80;;
13234;SDS011;6683;48.506;9.050;2023-04-03T12:17:53;1.87;;;1.10;;
13234;SDS011;6683;48.506;9.050;2023-04-03T12:20:56;1.50;;;1.00;;
13234;SDS011;6683;48.506;9.050;2023-04-03T12:24:04;1.93;;;1.10;;
13234;SDS011;6683;48.506;9.050;2023-04-03T12:27:26;1.67;;;1.20;;
13234;SDS011;6683;48.506;9.050;2023-04-03T12:30:34;1.97;;;1.40;;
13234;SDS011;6683;48.506;9.050;2023-04-03T12:33:42;1.20;;;1.10;;
13234;SDS011;6683;48.506;9.050;2023-04-03T12:37:17;1.97;;;1.10;;
13234;SDS011;6683;48.506;9.050;2023-04-03T12:40:38;1.80;;;1.20;;
13234;SDS011;6683;48.506;9.050;2023-04-03T12:47:37;2.00;;;1.10;;
13234;SDS011;6683;48.506;9.050;2023-04-03T12:50:43;1.33;;;1.07;;
13234;SDS011;6683;48.506;9.050;2023-04-03T12:53:48;1.17;;;1.07;;
13234;SDS011;6683;48.506;9.050;2023-04-03T12:57:10;1.93;;;1.30;;
13234;SDS011;6683;48.506;9.050;2023-04-03T13:00:18;1.33;;;1.03;;
13234;SDS011;6683;48.506;9.050;2023-04-03T13:03:32;1.67;;;1.30;;
13234;SDS011;6683;48.506;9.050;2023-04-03T13:06:38;5.17;;;1.60;;
13234;SDS011;6683;48.506;9.050;2023-04-03T13:09:42;0.93;;;0.90;;
13234;SDS011;6683;48.506;9.050;2023-04-03T13:12:57;1.67;;;1.20;;
13234;SDS011;6683;48.506;9.050;2023-04-03T13:16:09;2.43;;;1.47;;
13234;SDS011;6683;48.506;9.050;2023-04-03T13:19:15;1.50;;;1.30;;
13234;SDS011;6683;48.506;9.050;2023-04-03T13:22:23;1.80;;;1.53;;
13234;SDS011;6683;48.506;9.050;2023-04-03T13:25:31;2.17;;;1.40;;
13234;SDS011;6683;48.506;9.050;2023-04-03T13:28:39;1.70;;;1.50;;
13234;SDS011;6683;48.506;9.050;2023-04-03T13:31:42;1.97;;;1.40;;
13234;SDS011;6683;48.506;9.050;2023-04-03T13:34:45;1.53;;;1.40;;
13234;SDS011;6683;48.506;9.050;2023-04-03T13:37:53;1.27;;;1.17;;
13234;SDS011;6683;48.506;9.050;2023-04-03T13:40:57;4.53;;;1.40;;
13234;SDS011;6683;48.506;9.050;2023-04-03T13:47:38;1.63;;;1.20;;
13234;SDS011;6683;48.506;9.050;2023-04-03T13:50:50;2.37;;;1.27;;
13234;SDS011;6683;48.506;9.050;2023-04-03T13:53:56;1.90;;;1.13;;
13234;SDS011;6683;48.506;9.050;2023-04-03T13:57:00;1.20;;;1.10;;
13234;SDS011;6683;48.506;9.050;2023-04-03T14:00:29;1.70;;;1.20;;
13234;SDS011;6683;48.506;9.050;2023-04-03T14:03:40;2.20;;;1.60;;
13234;SDS011;6683;48.506;9.050;2023-04-03T14:06:46;1.53;;;1.20;;
13234;SDS011;6683;48.506;9.050;2023-04-03T14:09:49;1.40;;;1.20;;
13234;SDS011;6683;48.506;9.050;2023-04-03T14:12:52;2.50;;;1.23;;
13234;SDS011;6683;48.506;9.050;2023-04-03T14:15:57;2.23;;;1.60;;
13234;SDS011;6683;48.506;9.050;2023-04-03T14:19:00;2.53;;;1.33;;
13234;SDS011;6683;48.506;9.050;2023-04-03T14:22:06;1.37;;;1.27;;
13234;SDS011;6683;48.506;9.050;2023-04-03T14:25:16;2.43;;;1.17;;
13234;SDS011;6683;48.506;9.050;2023-04-03T14:28:21;1.43;;;1.20;;
13234;SDS011;6683;48.506;9.050;2023-04-03T14:31:25;1.30;;;1.00;;
13234;SDS011;6683;48.506;9.050;2023-04-03T14:34:28;1.23;;;1.00;;
13234;SDS011;6683;48.506;9.050;2023-04-03T14:37:31;4.13;;;1.30;;
13234;SDS011;6683;48.506;9.050;2023-04-03T14:40:33;2.57;;;1.10;;
13234;SDS011;6683;48.506;9.050;2023-04-03T14:43:36;2.00;;;1.17;;
13234;SDS011;6683;48.506;9.050;2023-04-03T14:46:41;1.43;;;1.30;;
13234;SDS011;6683;48.506;9.050;2023-04-03T14:49:46;2.83;;;1.50;;
13234;SDS011;6683;48.506;9.050;2023-04-03T14:52:49;1.90;;;1.40;;
13234;SDS011;6683;48.506;9.050;2023-04-03T14:55:54;1.90;;;1.33;;
13234;SDS011;6683;48.506;9.050;2023-04-03T14:58:57;2.30;;;1.30;;
13234;SDS011;6683;48.506;9.050;2023-04-03T15:02:04;2.37;;;1.53;;
13234;SDS011;6683;48.506;9.050;2023-04-03T15:05:29;1.83;;;1.47;;
13234;SDS011;6683;48.506;9.050;2023-04-03T15:08:31;2.20;;;1.37;;
13234;SDS011;6683;48.506;9.050;2023-04-03T15:11:34;4.23;;;1.60;;
13234;SDS011;6683;48.506;9.050;2023-04-03T15:14:37;2.77;;;1.30;;
13234;SDS011;6683;48.506;9.050;2023-04-03T15:17:41;2.53;;;1.47;;
13234;SDS011;6683;48.506;9.050;2023-04-03T15:20:44;2.70;;;1.33;;
13234;SDS011;6683;48.506;9.050;2023-04-03T15:23:48;3.67;;;1.40;;
13234;SDS011;6683;48.506;9.050;2023-04-03T15:26:50;2.47;;;1.40;;
13234;SDS011;6683;48.506;9.050;2023-04-03T15:29:53;2.03;;;1.57;;
13234;SDS011;6683;48.506;9.050;2023-04-03T15:32:57;2.37;;;1.60;;
13234;SDS011;6683;48.506;9.050;2023-04-03T15:36:00;1.90;;;1.43;;
13234;SDS011;6683;48.506;9.050;2023-04-03T15:39:03;1.80;;;1.40;;
13234;SDS011;6683;48.506;9.050;2023-04-03T15:42:05;1.60;;;1.23;;
13234;SDS011;6683;48.506;9.050;2023-04-03T15:45:08;2.50;;;1.20;;
13234;SDS011;6683;48.506;9.050;2023-04-03T15:48:12;3.47;;;1.27;;
13234;SDS011;6683;48.506;9.050;2023-04-03T15:51:15;3.83;;;2.27;;
13234;SDS011;6683;48.506;9.050;2023-04-03T15:54:18;3.00;;;2.03;;
13234;SDS011;6683;48.506;9.050;2023-04-03T15:57:20;2.97;;;1.97;;
13234;SDS011;6683;48.506;9.050;2023-04-03T16:00:26;2.63;;;2.10;;
13234;SDS011;6683;48.506;9.050;2023-04-03T16:03:31;3.10;;;1.60;;
13234;SDS011;6683;48.506;9.050;2023-04-03T16:06:33;7.27;;;3.87;;
13234;SDS011;6683;48.506;9.050;2023-04-03T16:09:36;2.37;;;1.70;;
13234;SDS011;6683;48.506;9.050;2023-04-03T16:12:38;2.53;;;1.63;;
13234;SDS011;6683;48.506;9.050;2023-04-03T16:15:41;2.00;;;1.43;;
13234;SDS011;6683;48.506;9.050;2023-04-03T16:18:45;1.53;;;1.37;;
13234;SDS011;6683;48.506;9.050;2023-04-03T16:21:49;1.47;;;1.37;;
13234;SDS011;6683;48.506;9.050;2023-04-03T16:24:51;1.30;;;1.20;;
13234;SDS011;6683;48.506;9.050;2023-04-03T16:27:54;1.73;;;1.30;;
13234;SDS011;6683;48.506;9.050;2023-04-03T16:30:56;1.60;;;1.37;;
13234;SDS011;6683;48.506;9.050;2023-04-03T16:34:01;1.60;;;1.20;;
13234;SDS011;6683;48.506;9.050;2023-04-03T16:37:03;1.93;;;1.60;;
13234;SDS011;6683;48.506;9.050;2023-04-03T16:40:06;6.10;;;3.47;;
13234;SDS011;6683;48.506;9.050;2023-04-03T16:43:11;7.53;;;3.70;;
13234;SDS011;6683;48.506;9.050;2023-04-03T16:46:14;5.30;;;2.87;;
13234;SDS011;6683;48.506;9.050;2023-04-03T16:49:19;5.93;;;3.03;;
13234;SDS011;6683;48.506;9.050;2023-04-03T16:52:21;4.97;;;2.50;;
13234;SDS011;6683;48.506;9.050;2023-04-03T16:55:23;4.87;;;2.90;;
13234;SDS011;6683;48.506;9.050;2023-04-03T16:58:26;5.30;;;3.10;;
13234;SDS011;6683;48.506;9.050;2023-04-03T17:01:28;5.50;;;2.80;;
13234;SDS011;6683;48.506;9.050;2023-04-03T17:04:32;4.47;;;3.00;;
13234;SDS011;6683;48.506;9.050;2023-04-03T17:07:34;5.43;;;2.33;;
13234;SDS011;6683;48.506;9.050;2023-04-03T17:10:37;4.00;;;2.60;;
13234;SDS011;6683;48.506;9.050;2023-04-03T17:13:40;2.50;;;1.47;;
13234;SDS011;6683;48.506;9.050;2023-04-03T17:16:42;3.73;;;2.60;;
13234;SDS011;6683;48.506;9.050;2023-04-03T17:19:46;2.80;;;1.77;;
13234;SDS011;6683;48.506;9.050;2023-04-03T17:22:49;1.93;;;1.50;;
13234;SDS011;6683;48.506;9.050;2023-04-03T17:25:52;4.20;;;2.17;;
13234;SDS011;6683;48.506;9.050;2023-04-03T17:28:55;4.23;;;2.73;;
13234;SDS011;6683;48.506;9.050;2023-04-03T17:31:58;2.63;;;2.00;;
13234;SDS011;6683;48.506;9.050;2023-04-03T17:35:02;1.93;;;1.50;;
13234;SDS011;6683;48.506;9.050;2023-04-03T17:38:05;2.20;;;1.37;;
13234;SDS011;6683;48.506;9.050;2023-04-03T17:41:07;2.23;;;1.20;;
13234;SDS011;6683;48.506;9.050;2023-04-03T17:44:10;1.40;;;1.30;;
13234;SDS011;6683;48.506;9.050;2023-04-03T17:47:13;1.60;;;1.20;;
13234;SDS011;6683;48.506;9.050;2023-04-03T17:50:18;2.47;;;1.33;;
13234;SDS011;6683;48.506;9.050;2023-04-03T17:53:20;2.97;;;2.03;;
13234;SDS011;6683;48.506;9.050;2023-04-03T17:56:24;3.30;;;2.37;;
13234;SDS011;6683;48.506;9.050;2023-04-03T17:59:27;2.93;;;1.80;;
13234;SDS011;6683;48.506;9.050;2023-04-03T18:02:30;1.77;;;1.20;;
13234;SDS011;6683;48.506;9.050;2023-04-03T18:05:34;2.07;;;1.53;;
13234;SDS011;6683;48.506;9.050;2023-04-03T18:08:39;3.27;;;2.03;;
13234;SDS011;6683;48.506;9.050;2023-04-03T18:11:45;3.47;;;1.77;;
13234;SDS011;6683;48.506;9.050;2023-04-03T18:14:49;2.30;;;1.30;;
13234;SDS011;6683;48.506;9.050;2023-04-03T18:17:51;1.53;;;1.40;;
13234;SDS011;6683;48.506;9.050;2023-04-03T18:20:57;1.50;;;1.40;;
13234;SDS011;6683;48.506;9.050;2023-04-03T18:23:59;1.77;;;1.43;;
13234;SDS011;6683;48.506;9.050;2023-04-03T18:27:03;2.97;;;1.60;;
13234;SDS011;6683;48.506;9.050;2023-04-03T18:30:12;2.53;;;1.60;;
13234;SDS011;6683;48.506;9.050;2023-04-03T18:33:17;2.10;;;1.90;;
13234;SDS011;6683;48.506;9.050;2023-04-03T18:36:21;2.80;;;2.23;;
13234;SDS011;6683;48.506;9.050;2023-04-03T18:39:23;2.27;;;2.07;;
13234;SDS011;6683;48.506;9.050;2023-04-03T18:42:29;2.47;;;1.90;;
13234;SDS011;6683;48.506;9.050;2023-04-03T18:45:32;2.37;;;1.87;;
13234;SDS011;6683;48.506;9.050;2023-04-03T18:48:35;3.30;;;2.03;;
13234;SDS011;6683;48.506;9.050;2023-04-03T18:51:41;2.40;;;1.77;;
13234;SDS011;6683;48.506;9.050;2023-04-03T18:54:44;1.90;;;1.60;;
13234;SDS011;6683;48.506;9.050;2023-04-03T18:57:47;3.50;;;2.00;;
13234;SDS011;6683;48.506;9.050;2023-04-03T19:00:49;2.90;;;2.10;;
13234;SDS011;6683;48.506;9.050;2023-04-03T19:03:52;7.17;;;3.60;;